Time;durP1;ratioP1;P1;durP2;ratioP2;P2;SDS_P1;SDS_P2;PMS_P1;PMS_P2;Temp;Humidity;BMP_temperature;BMP_pressure;BME280_temperature;BME280_humidity;BME280_pressure;Samples;Min_cycle;Max_cycle;Signal;HPM_P1;HPM_P2
2022/06/26 00:00:32;;;;;;;3.42;1.10;;;25.40;47.90;;;;;;6183468;28;20115;-70
2022/06/26 00:03:33;;;;;;;9.07;1.23;;;25.40;47.90;;;;;;6163826;28;20059;-70
2022/06/26 00:06:34;;;;;;;3.03;1.23;;;25.40;48.00;;;;;;6161482;28;20085;-70
2022/06/26 00:09:35;;;;;;;7.07;1.38;;;25.40;48.20;;;;;;6172852;28;20488;-70
2022/06/26 00:12:36;;;;;;;2.88;1.10;;;25.40;48.20;;;;;;6182800;28;20074;-70
2022/06/26 00:15:38;;;;;;;3.03;1.15;;;25.40;48.20;;;;;;6160811;28;20030;-70
2022/06/26 00:18:41;;;;;;;7.47;1.33;;;25.40;48.30;;;;;;6155343;28;20038;-70
2022/06/26 00:21:42;;;;;;;2.63;1.40;;;25.30;48.30;;;;;;6177206;28;20406;-70
2022/06/26 00:24:43;;;;;;;3.53;1.10;;;25.30;48.30;;;;;;6167328;28;20038;-70
2022/06/26 00:27:46;;;;;;;2.05;1.20;;;25.30;48.30;;;;;;6185160;28;20384;-71
2022/06/26 00:30:47;;;;;;;1.73;1.10;;;25.30;48.40;;;;;;6149513;28;20046;-70
2022/06/26 00:33:48;;;;;;;2.10;1.60;;;25.30;48.60;;;;;;6180481;28;20086;-70
2022/06/26 00:36:49;;;;;;;13.30;1.77;;;25.20;48.90;;;;;;6180249;28;20355;-70
2022/06/26 00:39:50;;;;;;;6.65;1.25;;;25.00;49.60;;;;;;6178413;28;20042;-70
2022/06/26 00:42:51;;;;;;;4.43;1.40;;;25.00;49.30;;;;;;6158528;28;20050;-70
2022/06/26 00:45:52;;;;;;;3.63;1.13;;;24.90;49.40;;;;;;6166433;28;20460;-69
2022/06/26 00:48:53;;;;;;;2.60;1.50;;;24.80;49.50;;;;;;6170784;28;20395;-69
2022/06/26 00:51:56;;;;;;;1.98;1.20;;;24.80;49.50;;;;;;6148997;28;20034;-69
2022/06/26 00:54:57;;;;;;;2.78;1.08;;;24.80;49.60;;;;;;6164539;28;20034;-69
2022/06/26 00:57:59;;;;;;;2.83;1.30;;;24.70;49.60;;;;;;6178240;28;20448;-70
2022/06/26 01:01:00;;;;;;;1.38;0.98;;;24.70;49.60;;;;;;6182074;28;20022;-70
2022/06/26 01:04:04;;;;;;;4.88;1.50;;;24.70;49.60;;;;;;6170554;28;20038;-70
2022/06/26 01:07:06;;;;;;;1.50;1.20;;;24.70;49.70;;;;;;6172268;28;20404;-71
2022/06/26 01:10:07;;;;;;;1.90;1.10;;;24.70;50.40;;;;;;6180882;28;20031;-70
2022/06/26 01:13:09;;;;;;;3.00;1.33;;;24.70;49.80;;;;;;6179863;28;20026;-70
2022/06/26 01:16:12;;;;;;;2.17;1.15;;;24.60;49.90;;;;;;6174685;28;20114;-69
2022/06/26 01:19:18;;;;;;;2.08;1.20;;;24.60;50.00;;;;;;6173378;28;20351;-69
2022/06/26 01:22:19;;;;;;;1.77;1.25;;;24.60;50.80;;;;;;6169456;28;20484;-69
2022/06/26 01:25:20;;;;;;;1.75;1.23;;;24.60;50.20;;;;;;6167860;28;20193;-69
2022/06/26 01:28:22;;;;;;;3.25;1.13;;;24.60;50.10;;;;;;6154996;28;20138;-70
2022/06/26 01:31:24;;;;;;;2.58;1.27;;;24.60;50.20;;;;;;6162790;28;20030;-70
2022/06/26 01:34:28;;;;;;;8.95;1.48;;;24.60;50.20;;;;;;6164668;28;20034;-70
2022/06/26 01:37:35;;;;;;;2.78;1.10;;;24.60;50.10;;;;;;6150465;28;20030;-70
2022/06/26 01:40:36;;;;;;;5.22;1.20;;;24.60;50.20;;;;;;6166523;28;20026;-70
2022/06/26 01:43:38;;;;;;;1.85;1.20;;;24.50;50.20;;;;;;6178312;28;20372;-70
2022/06/26 01:46:39;;;;;;;9.85;1.40;;;24.50;50.30;;;;;;6183931;28;20089;-70
2022/06/26 01:49:41;;;;;;;1.98;1.20;;;24.50;50.20;;;;;;6159775;28;20031;-70
2022/06/26 01:52:42;;;;;;;5.15;1.30;;;24.50;50.20;;;;;;6175333;28;20027;-70
2022/06/26 01:55:43;;;;;;;1.25;1.05;;;24.50;50.20;;;;;;6171716;28;20039;-70
2022/06/26 01:58:48;;;;;;;11.60;2.90;;;24.60;50.10;;;;;;6173848;28;20036;-70
2022/06/26 02:01:56;;;;;;;7.00;3.10;;;24.60;50.20;;;;;;6172439;28;20062;-70
2022/06/26 02:05:00;;;;;;;5.93;3.25;;;24.70;50.30;;;;;;6173460;28;20046;-70
2022/06/26 02:08:02;;;;;;;7.53;3.63;;;24.70;50.30;;;;;;6161527;28;20109;-70
2022/06/26 02:14:23;;;;;;;11.00;6.20;;;24.70;50.30;;;;;;6166810;28;20038;-70
2022/06/26 02:17:33;;;;;;;7.88;4.97;;;24.70;50.20;;;;;;6169531;28;20061;-70
2022/06/26 02:20:35;;;;;;;16.27;7.80;;;24.70;50.20;;;;;;6179910;28;20482;-70
2022/06/26 02:23:37;;;;;;;12.20;6.15;;;24.70;50.30;;;;;;6169531;28;20061;-69
2022/06/26 02:26:38;;;;;;;21.42;6.40;;;24.70;50.30;;;;;;6171702;28;20049;-69
2022/06/26 02:29:39;;;;;;;11.35;5.50;;;24.70;50.30;;;;;;6175089;28;20513;-70
2022/06/26 02:32:41;;;;;;;12.88;5.65;;;24.80;50.30;;;;;;6169178;28;20508;-70
2022/06/26 02:35:42;;;;;;;8.63;4.55;;;24.90;50.20;;;;;;6148009;28;20093;-70
2022/06/26 02:38:43;;;;;;;13.32;4.07;;;24.90;50.00;;;;;;6157636;28;20121;-70
2022/06/26 02:41:44;;;;;;;9.35;3.42;;;24.90;50.00;;;;;;6170954;28;20038;-70
2022/06/26 02:44:46;;;;;;;4.55;1.80;;;24.90;50.10;;;;;;6186123;28;20138;-70
2022/06/26 02:47:48;;;;;;;3.45;1.65;;;24.90;50.20;;;;;;6186616;28;20448;-69
2022/06/26 02:50:50;;;;;;;5.28;1.50;;;24.90;50.30;;;;;;6170801;28;20038;-69
2022/06/26 02:53:52;;;;;;;2.42;1.30;;;24.90;50.30;;;;;;6186487;28;20035;-70
2022/06/26 02:56:54;;;;;;;4.22;2.00;;;24.90;50.30;;;;;;6168965;28;20034;-71
2022/06/26 02:59:55;;;;;;;4.57;2.35;;;25.00;50.30;;;;;;6195597;28;20507;-70
2022/06/26 03:02:59;;;;;;;6.47;2.78;;;25.00;50.20;;;;;;6163372;28;20038;-70
2022/06/26 03:06:01;;;;;;;6.75;2.10;;;24.90;50.20;;;;;;6183481;28;20312;-70
2022/06/26 03:09:02;;;;;;;5.90;2.25;;;25.00;50.30;;;;;;6179665;28;20030;-70
2022/06/26 03:12:04;;;;;;;2.53;1.55;;;24.90;50.30;;;;;;6170258;28;20466;-71
2022/06/26 03:15:07;;;;;;;2.55;1.23;;;24.90;50.90;;;;;;6169617;28;20380;-70
2022/06/26 03:18:08;;;;;;;2.67;1.50;;;24.90;50.70;;;;;;6169763;28;20049;-69
2022/06/26 03:21:09;;;;;;;4.10;1.30;;;24.80;50.60;;;;;;6186095;28;20085;-69
2022/06/26 03:24:10;;;;;;;2.97;1.50;;;24.80;50.70;;;;;;6185394;28;20034;-69
2022/06/26 03:27:12;;;;;;;4.40;1.52;;;24.90;50.90;;;;;;6165139;28;20089;-70
2022/06/26 03:30:15;;;;;;;3.58;1.50;;;24.90;51.00;;;;;;6178106;28;20048;-70
2022/06/26 03:33:24;;;;;;;3.78;1.50;;;24.90;51.20;;;;;;6168002;28;20117;-70
2022/06/26 03:36:27;;;;;;;1.58;1.35;;;24.90;51.30;;;;;;6162681;28;20399;-69
2022/06/26 03:39:30;;;;;;;6.72;1.60;;;24.90;51.50;;;;;;6173656;28;20026;-70
2022/06/26 03:42:31;;;;;;;2.60;1.45;;;24.70;52.60;;;;;;6162211;28;20078;-69
2022/06/26 03:45:32;;;;;;;5.32;1.70;;;24.70;52.80;;;;;;6184628;28;20066;-70
2022/06/26 03:48:33;;;;;;;4.05;1.52;;;24.50;53.20;;;;;;6169084;28;20026;-70
2022/06/26 03:51:35;;;;;;;6.07;1.30;;;24.30;53.60;;;;;;6185217;28;20031;-70
2022/06/26 03:54:39;;;;;;;2.60;1.40;;;24.20;53.90;;;;;;6167226;28;20026;-69
2022/06/26 03:57:40;;;;;;;3.92;1.00;;;24.00;54.40;;;;;;6184959;28;20097;-69
2022/06/26 04:00:43;;;;;;;9.93;1.70;;;23.90;54.70;;;;;;6184663;28;20340;-69
2022/06/26 04:03:45;;;;;;;3.20;1.42;;;23.80;54.80;;;;;;6184556;28;20125;-70
2022/06/26 04:06:47;;;;;;;3.80;1.38;;;23.70;55.10;;;;;;6184823;28;20034;-70
2022/06/26 04:09:58;;;;;;;1.42;1.17;;;23.60;55.60;;;;;;6154256;28;20042;-69
2022/06/26 04:13:03;;;;;;;3.33;1.35;;;23.50;55.80;;;;;;6161679;28;20035;-70
2022/06/26 04:16:09;;;;;;;3.83;1.58;;;23.50;56.10;;;;;;6161525;28;20041;-70
2022/06/26 04:19:14;;;;;;;5.95;1.38;;;23.50;56.30;;;;;;6161532;28;20404;-70
2022/06/26 04:22:15;;;;;;;10.38;1.60;;;23.40;56.50;;;;;;6161326;28;20062;-70
2022/06/26 04:25:17;;;;;;;1.50;1.10;;;23.40;56.70;;;;;;6165072;28;20049;-70
2022/06/26 04:28:18;;;;;;;3.03;1.20;;;23.40;56.80;;;;;;6167825;28;20075;-70
2022/06/26 04:31:21;;;;;;;1.45;0.98;;;23.40;56.80;;;;;;6168228;28;20023;-70
2022/06/26 04:34:27;;;;;;;4.30;1.20;;;23.30;56.70;;;;;;6183478;28;20050;-70
2022/06/26 04:37:28;;;;;;;1.10;1.02;;;23.30;56.90;;;;;;6184134;28;20034;-70
2022/06/26 04:40:29;;;;;;;3.80;1.35;;;23.20;57.00;;;;;;6184453;28;20041;-70
2022/06/26 04:43:31;;;;;;;16.63;1.67;;;23.20;57.30;;;;;;6167846;28;20041;-71
2022/06/26 04:46:32;;;;;;;2.75;1.42;;;23.20;57.40;;;;;;6167602;28;20406;-70
2022/06/26 04:49:34;;;;;;;2.20;1.20;;;23.10;57.80;;;;;;6184337;28;20034;-70
2022/06/26 04:52:35;;;;;;;7.68;1.42;;;23.10;58.00;;;;;;6200808;28;20033;-70
2022/06/26 04:55:36;;;;;;;4.30;1.33;;;23.00;58.20;;;;;;6163584;28;20034;-70
2022/06/26 04:58:37;;;;;;;3.50;1.35;;;22.90;58.40;;;;;;6162856;28;20030;-70
2022/06/26 05:01:38;;;;;;;9.23;1.67;;;22.90;58.70;;;;;;6183009;28;20355;-69
2022/06/26 05:04:48;;;;;;;3.38;1.30;;;22.80;58.80;;;;;;6184870;28;20038;-69
2022/06/26 05:08:18;;;;;;;1.10;1.00;;;22.90;58.70;;;;;;6183517;28;20027;-69
2022/06/26 05:11:20;;;;;;;2.28;1.25;;;23.00;58.60;;;;;;6183393;28;20038;-69
2022/06/26 05:14:25;;;;;;;2.63;1.30;;;23.10;58.30;;;;;;6182953;28;20022;-70
2022/06/26 05:17:49;;;;;;;4.68;1.42;;;23.30;58.20;;;;;;6164957;28;20089;-69
2022/06/26 05:20:52;;;;;;;2.85;1.60;;;23.40;57.90;;;;;;6144367;28;20183;-69
2022/06/26 05:24:01;;;;;;;2.17;1.60;;;23.60;57.80;;;;;;6166283;28;20089;-69
2022/06/26 05:27:03;;;;;;;2.42;1.73;;;23.70;57.60;;;;;;6166040;28;20034;-69
2022/06/26 05:30:05;;;;;;;3.45;1.95;;;23.80;57.60;;;;;;6157756;28;20030;-70
2022/06/26 05:33:12;;;;;;;4.72;1.60;;;23.90;57.30;;;;;;6182976;28;20037;-70
2022/06/26 05:36:13;;;;;;;4.38;1.45;;;24.00;57.00;;;;;;6183101;28;20112;-69
2022/06/26 05:39:15;;;;;;;3.20;1.60;;;24.10;56.70;;;;;;6172460;28;20302;-70
2022/06/26 05:42:16;;;;;;;4.65;1.48;;;24.20;56.40;;;;;;6159833;28;20042;-69
2022/06/26 05:45:17;;;;;;;5.18;1.50;;;24.30;56.20;;;;;;6143320;28;20150;-70
2022/06/26 05:48:37;;;;;;;2.47;1.38;;;24.40;56.00;;;;;;6168306;28;20030;-70
2022/06/26 05:51:54;;;;;;;9.02;1.70;;;24.50;55.70;;;;;;6182079;28;20506;-70
2022/06/26 05:55:21;;;;;;;3.72;1.60;;;24.50;55.40;;;;;;6180079;28;20030;-70
2022/06/26 05:58:41;;;;;;;3.58;1.40;;;24.50;54.90;;;;;;6184590;28;20050;-70
2022/06/26 06:02:14;;;;;;;3.75;1.30;;;24.50;54.60;;;;;;6186970;28;20038;-70
2022/06/26 06:05:15;;;;;;;4.13;1.83;;;24.60;54.60;;;;;;6165356;28;20054;-70
2022/06/26 06:08:17;;;;;;;3.05;1.38;;;24.60;54.50;;;;;;6167016;28;20119;-70
2022/06/26 06:11:18;;;;;;;9.05;1.48;;;24.70;54.20;;;;;;6143581;28;20035;-70
2022/06/26 06:14:20;;;;;;;1.45;1.17;;;24.70;54.00;;;;;;6159236;28;20030;-70
2022/06/26 06:17:36;;;;;;;2.78;1.33;;;24.80;53.90;;;;;;6159521;28;20122;-69
2022/06/26 06:20:37;;;;;;;2.20;1.25;;;24.90;53.50;;;;;;6143394;28;20474;-69
2022/06/26 06:23:42;;;;;;;1.30;1.20;;;24.90;53.30;;;;;;6135262;28;20075;-69
2022/06/26 06:26:43;;;;;;;1.75;1.25;;;25.10;53.10;;;;;;6151343;28;20031;-70
2022/06/26 06:29:50;;;;;;;1.95;1.30;;;25.10;52.90;;;;;;6148086;28;20039;-70
2022/06/26 06:32:51;;;;;;;2.75;1.52;;;25.20;52.80;;;;;;6160499;28;20030;-69
2022/06/26 06:36:04;;;;;;;2.03;1.30;;;25.30;52.50;;;;;;6151195;28;20031;-70
2022/06/26 06:39:07;;;;;;;2.90;1.20;;;25.30;52.10;;;;;;6148181;28;20043;-69
2022/06/26 06:42:09;;;;;;;3.47;1.60;;;25.30;51.90;;;;;;6165828;28;20448;-70
2022/06/26 06:45:11;;;;;;;2.50;1.20;;;25.30;51.90;;;;;;6174903;28;20520;-70
2022/06/26 06:48:25;;;;;;;6.07;1.52;;;25.40;51.80;;;;;;6159641;28;20345;-70
2022/06/26 06:51:56;;;;;;;1.63;1.35;;;25.40;51.40;;;;;;6108612;29;20036;-70
2022/06/26 06:54:58;;;;;;;2.47;1.40;;;25.40;51.10;;;;;;6108790;29;20048;-70
2022/06/26 06:58:02;;;;;;;3.03;1.30;;;25.50;51.70;;;;;;6110912;29;20055;-70
2022/06/26 07:01:03;;;;;;;4.15;1.40;;;25.60;51.20;;;;;;6119552;29;20055;-70
2022/06/26 07:04:06;;;;;;;4.00;1.70;;;25.70;51.00;;;;;;6106743;29;20060;-70
2022/06/26 07:07:07;;;;;;;5.72;1.50;;;25.80;50.80;;;;;;6090928;29;20552;-70
2022/06/26 07:10:09;;;;;;;1.38;1.13;;;26.00;50.60;;;;;;6104610;29;20036;-69
2022/06/26 07:13:10;;;;;;;7.45;1.58;;;26.10;50.20;;;;;;6107424;29;20036;-70
2022/06/26 07:16:12;;;;;;;4.97;1.40;;;26.30;49.90;;;;;;6107945;29;20377;-70
2022/06/26 07:19:13;;;;;;;1.77;1.25;;;26.40;49.50;;;;;;6109311;29;20032;-70
2022/06/26 07:22:14;;;;;;;5.60;1.42;;;26.50;49.20;;;;;;6112836;29;20059;-70
2022/06/26 07:25:16;;;;;;;2.38;1.55;;;26.60;49.00;;;;;;6074771;29;20036;-70
2022/06/26 07:28:19;;;;;;;2.63;1.25;;;26.60;49.00;;;;;;6149989;28;20039;-70
2022/06/26 07:31:21;;;;;;;3.75;1.58;;;26.70;48.90;;;;;;6172130;28;20105;-70
2022/06/26 07:34:25;;;;;;;2.70;1.60;;;26.80;48.90;;;;;;6177186;28;20306;-70
2022/06/26 07:37:27;;;;;;;5.93;1.52;;;26.80;48.80;;;;;;6177624;28;20035;-70
2022/06/26 07:40:28;;;;;;;2.17;1.40;;;26.90;48.70;;;;;;6165084;28;20426;-70
2022/06/26 07:43:35;;;;;;;6.90;1.45;;;27.00;48.50;;;;;;6153937;28;20063;-70
2022/06/26 07:46:37;;;;;;;2.05;1.30;;;27.20;48.30;;;;;;6154105;28;20050;-70
2022/06/26 07:49:39;;;;;;;1.08;0.98;;;27.30;47.90;;;;;;6153799;28;20031;-69
2022/06/26 07:52:40;;;;;;;1.75;1.20;;;27.40;47.50;;;;;;6154071;28;20035;-69
2022/06/26 07:55:42;;;;;;;1.95;0.95;;;27.50;47.20;;;;;;6138254;28;20050;-69
2022/06/26 07:58:43;;;;;;;4.65;1.50;;;27.50;46.80;;;;;;6174798;28;20393;-71
2022/06/26 08:01:44;;;;;;;2.50;1.40;;;27.60;47.00;;;;;;6160049;28;20035;-70
2022/06/26 08:04:46;;;;;;;3.20;1.10;;;27.80;46.80;;;;;;6168421;28;20471;-70
2022/06/26 08:07:46;;;;;;;1.48;1.13;;;27.90;46.60;;;;;;6176295;28;20031;-70
2022/06/26 08:10:48;;;;;;;1.17;1.05;;;27.90;46.30;;;;;;6176169;28;20034;-70
2022/06/26 08:13:49;;;;;;;3.45;2.03;;;27.80;46.30;;;;;;6176613;28;20464;-70
2022/06/26 08:16:50;;;;;;;2.88;1.20;;;27.80;46.50;;;;;;6176908;28;20097;-70
2022/06/26 08:19:51;;;;;;;2.85;1.10;;;27.80;46.50;;;;;;6159723;28;20043;-70
2022/06/26 08:22:52;;;;;;;1.30;1.20;;;27.90;46.40;;;;;;6170032;28;20349;-70
2022/06/26 08:25:53;;;;;;;2.25;1.20;;;27.80;46.40;;;;;;6160657;28;20031;-70
2022/06/26 08:28:54;;;;;;;4.15;1.30;;;27.80;46.70;;;;;;6175098;28;20125;-70
2022/06/26 08:31:55;;;;;;;1.90;1.00;;;27.70;46.80;;;;;;6201175;28;20027;-70
2022/06/26 08:34:56;;;;;;;1.58;1.13;;;27.80;46.90;;;;;;6148620;28;20321;-70
2022/06/26 08:37:57;;;;;;;3.00;1.30;;;27.80;46.90;;;;;;6164966;28;20030;-70
2022/06/26 08:41:01;;;;;;;5.53;1.40;;;27.90;47.00;;;;;;6200674;28;20042;-70
2022/06/26 08:44:03;;;;;;;2.28;1.17;;;27.90;46.90;;;;;;6176471;28;20084;-69
2022/06/26 08:47:04;;;;;;;2.13;1.10;;;28.00;46.80;;;;;;6160601;28;20113;-71
2022/06/26 08:50:06;;;;;;;1.55;1.20;;;28.00;46.30;;;;;;6164347;28;20368;-69
2022/06/26 08:53:07;;;;;;;3.28;1.58;;;28.20;45.80;;;;;;6160929;28;20045;-69
2022/06/26 08:56:09;;;;;;;3.00;1.80;;;28.30;45.40;;;;;;6144272;28;20030;-69
2022/06/26 08:59:14;;;;;;;6.05;3.78;;;28.40;45.00;;;;;;6166462;28;20026;-69
2022/06/26 09:02:15;;;;;;;5.80;3.65;;;28.40;44.90;;;;;;6177466;28;20038;-69
2022/06/26 09:05:15;;;;;;;3.83;2.10;;;28.50;45.00;;;;;;6160236;28;20373;-70
2022/06/26 09:08:21;;;;;;;2.70;1.15;;;28.60;45.10;;;;;;6170701;28;20035;-70
2022/06/26 09:11:24;;;;;;;7.03;1.35;;;28.80;45.20;;;;;;6176226;28;20030;-70
2022/06/26 09:14:27;;;;;;;1.88;1.20;;;28.90;45.10;;;;;;6161941;28;20364;-70
2022/06/26 09:17:28;;;;;;;3.10;1.23;;;29.00;44.90;;;;;;6144180;28;20026;-70
2022/06/26 09:20:32;;;;;;;2.15;1.50;;;29.00;44.80;;;;;;6176985;28;20034;-70
2022/06/26 09:23:35;;;;;;;1.42;1.10;;;29.10;44.70;;;;;;6149333;28;20121;-70
2022/06/26 09:26:37;;;;;;;2.22;1.20;;;29.10;44.60;;;;;;6182638;28;20436;-70
2022/06/26 09:29:40;;;;;;;1.35;1.20;;;29.20;44.60;;;;;;6182823;28;20026;-70
2022/06/26 09:32:41;;;;;;;1.30;1.20;;;29.10;44.50;;;;;;6199736;28;20360;-70
2022/06/26 09:35:42;;;;;;;4.85;1.48;;;29.20;44.50;;;;;;6179120;28;20097;-70
2022/06/26 09:38:52;;;;;;;1.92;1.40;;;29.10;44.50;;;;;;6153589;28;20455;-70
2022/06/26 09:41:53;;;;;;;3.42;1.60;;;29.00;44.70;;;;;;6166541;28;20471;-70
2022/06/26 09:44:55;;;;;;;1.38;1.20;;;29.00;44.90;;;;;;6182202;28;20467;-69
2022/06/26 09:47:57;;;;;;;3.45;1.60;;;28.90;45.00;;;;;;6182486;28;20068;-71
2022/06/26 09:50:59;;;;;;;5.72;1.73;;;29.00;45.10;;;;;;6182594;28;20575;-71
2022/06/26 09:54:03;;;;;;;4.80;1.50;;;28.90;45.10;;;;;;6165601;28;20080;-71
2022/06/26 09:57:04;;;;;;;2.28;1.60;;;28.90;45.20;;;;;;6176131;28;20034;-72
2022/06/26 10:00:06;;;;;;;3.75;1.50;;;28.90;45.30;;;;;;6158904;28;20320;-70
2022/06/26 10:06:33;;;;;;;2.58;1.55;;;28.90;45.40;;;;;;6176243;28;20464;-71
2022/06/26 10:09:35;;;;;;;3.97;1.52;;;28.90;45.30;;;;;;6192137;28;20050;-71
2022/06/26 10:12:37;;;;;;;8.48;1.85;;;29.00;45.20;;;;;;6154437;28;20030;-70
2022/06/26 10:16:09;;;;;;;3.63;1.75;;;29.10;45.00;;;;;;6159027;28;20782;-70
2022/06/26 10:19:23;;;;;;;11.30;1.95;;;29.00;44.90;;;;;;6088866;29;20048;-70
2022/06/26 10:22:24;;;;;;;4.18;1.67;;;29.00;44.90;;;;;;6109202;29;20055;-70
2022/06/26 10:25:28;;;;;;;1.85;1.23;;;29.10;44.50;;;;;;6126825;29;20036;-69
2022/06/26 10:28:29;;;;;;;2.72;1.48;;;29.30;44.10;;;;;;6130403;29;20082;-70
2022/06/26 10:31:49;;;;;;;10.70;2.35;;;29.50;44.20;;;;;;6095528;29;20144;-69
2022/06/26 10:34:56;;;;;;;3.65;1.50;;;29.70;43.20;;;;;;6129576;29;20040;-69
2022/06/26 10:37:58;;;;;;;3.22;1.38;;;29.90;42.90;;;;;;6097146;29;20050;-70
2022/06/26 10:45:11;;;;;;;3.63;1.42;;;30.10;43.10;;;;;;6130090;29;20477;-69
2022/06/26 10:48:20;;;;;;;8.85;3.05;;;30.10;42.80;;;;;;6013601;29;20034;-70
2022/06/26 10:51:30;;;;;;;3.22;1.48;;;30.20;42.60;;;;;;6011262;29;20456;-70
2022/06/26 10:54:33;;;;;;;2.97;1.23;;;30.30;42.40;;;;;;6017657;29;20334;-70
2022/06/26 10:57:36;;;;;;;7.60;1.75;;;30.40;42.20;;;;;;6062541;29;20420;-70
2022/06/26 11:00:38;;;;;;;3.35;1.50;;;30.40;41.70;;;;;;6060015;29;20112;-71
2022/06/26 11:03:40;;;;;;;8.85;1.30;;;30.50;41.70;;;;;;6058320;29;20095;-70
2022/06/26 11:06:42;;;;;;;4.75;1.55;;;30.50;41.20;;;;;;6047872;29;20498;-70
2022/06/26 11:09:44;;;;;;;4.63;1.38;;;30.80;40.70;;;;;;6076409;29;20036;-69
2022/06/26 11:12:48;;;;;;;4.47;1.90;;;31.90;39.40;;;;;;6059915;29;20044;-69
2022/06/26 11:15:49;;;;;;;3.65;1.42;;;32.90;37.90;;;;;;6046999;29;20088;-69
2022/06/26 11:18:50;;;;;;;5.30;1.40;;;33.80;36.70;;;;;;6044020;29;20052;-69
2022/06/26 11:22:05;;;;;;;4.97;1.50;;;34.30;35.50;;;;;;6059303;29;20135;-70
2022/06/26 11:25:06;;;;;;;9.90;1.50;;;35.00;34.60;;;;;;6108046;28;20074;-69
2022/06/26 11:28:09;;;;;;;1.83;1.20;;;35.30;34.20;;;;;;6146782;28;20419;-69
2022/06/26 11:31:19;;;;;;;5.22;1.40;;;35.70;33.90;;;;;;6146409;28;20061;-69
2022/06/26 11:34:20;;;;;;;8.10;1.55;;;36.20;33.40;;;;;;6162400;28;20142;-69
2022/06/26 11:37:36;;;;;;;2.80;1.10;;;36.50;32.90;;;;;;6161246;28;20034;-69
2022/06/26 11:40:37;;;;;;;5.65;1.73;;;36.70;33.20;;;;;;6183529;28;20129;-69
2022/06/26 11:43:48;;;;;;;6.20;1.50;;;37.00;32.20;;;;;;6202510;28;20022;-69
2022/06/26 11:46:49;;;;;;;6.13;1.38;;;37.30;32.00;;;;;;6185091;28;20037;-70
2022/06/26 11:49:50;;;;;;;11.20;1.80;;;37.80;31.70;;;;;;6185143;28;20026;-69
2022/06/26 11:52:56;;;;;;;4.07;1.27;;;38.10;30.70;;;;;;6184442;28;20467;-70
2022/06/26 11:56:00;;;;;;;5.13;1.30;;;38.00;30.40;;;;;;6202174;28;20048;-70
2022/06/26 11:59:03;;;;;;;10.52;1.45;;;38.10;30.60;;;;;;6184910;28;20093;-70
2022/06/26 12:02:04;;;;;;;9.80;1.80;;;38.10;30.50;;;;;;6184708;28;20030;-70
2022/06/26 12:05:05;;;;;;;6.38;1.33;;;38.00;30.50;;;;;;6184927;28;20031;-70
2022/06/26 12:08:15;;;;;;;14.35;1.90;;;37.80;30.80;;;;;;6184695;28;20459;-70
2022/06/26 12:11:16;;;;;;;2.78;1.25;;;37.90;31.00;;;;;;6184638;28;20030;-70
2022/06/26 12:14:19;;;;;;;9.15;1.30;;;38.30;30.60;;;;;;6184698;28;20038;-70
2022/06/26 12:17:28;;;;;;;4.93;1.35;;;38.60;30.30;;;;;;6192924;28;20468;-70
2022/06/26 12:20:36;;;;;;;5.20;1.38;;;38.80;30.20;;;;;;6168388;28;20030;-70
2022/06/26 12:23:37;;;;;;;2.92;1.50;;;39.10;29.60;;;;;;6184431;28;20100;-70
2022/06/26 12:26:39;;;;;;;7.35;1.77;;;39.10;29.20;;;;;;6167850;28;20057;-70
2022/06/26 12:29:40;;;;;;;6.38;1.42;;;39.30;29.10;;;;;;6184198;28;20096;-70
2022/06/26 12:32:41;;;;;;;5.80;1.58;;;39.50;28.50;;;;;;6164915;28;20146;-70
2022/06/26 12:35:43;;;;;;;6.97;1.33;;;39.30;28.60;;;;;;6146368;28;20057;-71
2022/06/26 12:38:46;;;;;;;7.78;1.70;;;39.40;28.70;;;;;;6176996;28;20044;-70
2022/06/26 12:41:49;;;;;;;3.58;1.67;;;39.50;28.80;;;;;;6180342;28;20045;-70
2022/06/26 12:44:50;;;;;;;4.07;1.55;;;39.70;28.80;;;;;;6177855;28;20023;-70
2022/06/26 12:47:51;;;;;;;4.43;1.27;;;40.10;28.30;;;;;;6173665;28;20031;-71
2022/06/26 12:50:52;;;;;;;4.68;1.40;;;40.20;28.10;;;;;;6172813;28;20051;-70
2022/06/26 12:53:54;;;;;;;5.00;1.58;;;40.20;28.00;;;;;;6177841;28;20026;-70
2022/06/26 12:56:55;;;;;;;4.70;1.00;;;40.20;27.70;;;;;;6177576;28;20372;-70
2022/06/26 12:59:56;;;;;;;3.00;1.50;;;40.20;27.80;;;;;;6165465;28;20117;-70
2022/06/26 13:02:57;;;;;;;7.50;1.55;;;40.20;27.80;;;;;;6183676;28;20114;-71
2022/06/26 13:05:58;;;;;;;9.13;1.75;;;40.30;27.70;;;;;;6163487;28;20045;-70
2022/06/26 13:08:59;;;;;;;9.13;1.40;;;40.60;27.50;;;;;;6172028;28;20022;-70
2022/06/26 13:12:00;;;;;;;10.23;2.03;;;40.80;27.20;;;;;;6183831;28;20035;-71
2022/06/26 13:15:02;;;;;;;5.10;1.30;;;41.00;26.90;;;;;;6160131;28;20057;-70
2022/06/26 13:18:03;;;;;;;1.73;1.30;;;41.50;26.50;;;;;;6166475;28;20038;-70
2022/06/26 13:21:04;;;;;;;5.82;1.48;;;42.00;26.10;;;;;;6169371;28;20038;-71
2022/06/26 13:24:06;;;;;;;5.80;1.63;;;42.30;25.70;;;;;;6160159;28;20034;-71
2022/06/26 13:27:07;;;;;;;2.75;1.13;;;42.90;25.50;;;;;;6182502;28;20066;-70
2022/06/26 13:30:08;;;;;;;3.00;1.45;;;43.40;24.80;;;;;;6182531;28;20026;-70
2022/06/26 13:33:11;;;;;;;2.83;1.33;;;43.30;24.80;;;;;;6183184;28;20070;-70
2022/06/26 13:36:12;;;;;;;6.65;1.38;;;43.30;25.00;;;;;;6181878;28;20026;-70
2022/06/26 13:39:13;;;;;;;4.68;1.20;;;43.20;24.80;;;;;;6199939;28;20065;-70
2022/06/26 13:42:14;;;;;;;2.92;0.98;;;43.40;24.80;;;;;;6182449;28;20141;-70
2022/06/26 13:45:15;;;;;;;5.90;1.50;;;43.60;24.60;;;;;;6182174;28;20378;-70
2022/06/26 13:48:16;;;;;;;3.35;1.30;;;43.60;24.70;;;;;;6182552;28;20038;-70
2022/06/26 13:51:18;;;;;;;5.68;1.52;;;43.30;25.10;;;;;;6199063;28;20132;-70
2022/06/26 13:54:19;;;;;;;2.90;1.30;;;43.40;25.10;;;;;;6182309;28;20109;-70
2022/06/26 13:57:20;;;;;;;2.17;1.10;;;43.60;25.00;;;;;;6199830;28;20040;-71
2022/06/26 14:00:21;;;;;;;2.20;1.20;;;43.50;25.10;;;;;;6198534;28;20092;-70
2022/06/26 14:03:23;;;;;;;6.70;1.30;;;43.30;25.30;;;;;;6151701;28;20034;-70
2022/06/26 14:06:24;;;;;;;3.70;1.15;;;43.30;25.80;;;;;;6159023;28;20441;-70
2022/06/26 14:09:25;;;;;;;3.45;1.20;;;43.10;25.40;;;;;;6191690;28;20164;-70
2022/06/26 14:12:26;;;;;;;2.55;1.33;;;42.90;25.70;;;;;;6199395;28;20087;-70
2022/06/26 14:15:27;;;;;;;4.07;1.40;;;43.60;25.50;;;;;;6182244;28;20039;-70
2022/06/26 14:18:28;;;;;;;2.65;1.35;;;43.70;24.90;;;;;;6176010;28;20061;-70
2022/06/26 14:21:29;;;;;;;2.90;1.30;;;43.70;25.10;;;;;;6198708;28;20120;-70
2022/06/26 14:27:50;;;;;;;5.40;1.40;;;43.30;25.20;;;;;;6173461;28;20428;-70
2022/06/26 14:30:51;;;;;;;2.58;1.00;;;43.20;25.30;;;;;;6167063;28;20030;-70
2022/06/26 14:33:52;;;;;;;5.20;1.20;;;43.10;25.40;;;;;;6175635;28;20118;-69
2022/06/26 14:36:53;;;;;;;4.72;1.40;;;42.70;25.60;;;;;;6165700;28;20356;-69
2022/06/26 14:39:54;;;;;;;4.00;1.38;;;42.60;25.80;;;;;;6181698;28;20038;-69
2022/06/26 14:42:55;;;;;;;1.35;1.05;;;42.80;25.60;;;;;;6179499;28;20027;-70
2022/06/26 14:45:57;;;;;;;3.25;1.42;;;42.80;25.50;;;;;;6181364;28;20035;-70
2022/06/26 14:48:58;;;;;;;3.17;1.55;;;42.70;25.60;;;;;;6199253;28;20475;-70
2022/06/26 14:51:59;;;;;;;7.60;1.50;;;42.70;25.40;;;;;;6181803;28;20030;-70
2022/06/26 14:55:01;;;;;;;1.70;1.30;;;42.80;25.40;;;;;;6181632;28;20034;-70
2022/06/26 14:58:06;;;;;;;2.08;1.30;;;43.10;25.20;;;;;;6181712;28;20045;-69
2022/06/26 15:01:07;;;;;;;3.88;1.15;;;43.10;25.00;;;;;;6198926;28;20050;-70
2022/06/26 15:04:08;;;;;;;2.08;1.40;;;42.90;25.20;;;;;;6165291;28;20034;-70
2022/06/26 15:07:09;;;;;;;3.25;1.15;;;42.80;25.20;;;;;;6198071;28;20088;-70
2022/06/26 15:10:12;;;;;;;5.05;1.35;;;42.90;25.30;;;;;;6158493;28;20117;-70
2022/06/26 15:13:14;;;;;;;2.03;1.23;;;42.90;25.20;;;;;;6164137;28;20031;-72
2022/06/26 15:16:15;;;;;;;7.30;1.17;;;42.70;25.30;;;;;;6195858;28;20362;-70
2022/06/26 15:19:17;;;;;;;1.73;1.10;;;42.60;25.40;;;;;;6190253;28;20030;-70
2022/06/26 15:22:18;;;;;;;2.50;1.23;;;42.30;25.60;;;;;;6162714;28;20141;-70
2022/06/26 15:25:19;;;;;;;4.80;1.20;;;42.00;25.90;;;;;;6190991;28;20034;-69
2022/06/26 15:28:20;;;;;;;2.05;1.17;;;42.10;25.90;;;;;;6185564;28;20371;-70
2022/06/26 15:31:21;;;;;;;4.63;1.50;;;42.10;25.80;;;;;;6162176;28;20023;-70
2022/06/26 15:34:22;;;;;;;6.57;1.65;;;42.20;25.80;;;;;;6162270;28;20037;-68
2022/06/26 15:37:25;;;;;;;4.25;1.40;;;42.00;26.00;;;;;;6162303;28;20097;-68
2022/06/26 15:40:26;;;;;;;5.45;1.25;;;41.60;26.10;;;;;;6201730;28;20065;-68
2022/06/26 15:43:27;;;;;;;3.00;1.20;;;41.20;26.50;;;;;;6168862;28;20101;-69
2022/06/26 15:46:28;;;;;;;1.52;1.13;;;41.30;26.60;;;;;;6168804;28;20049;-69
2022/06/26 15:49:30;;;;;;;2.90;1.17;;;41.30;26.60;;;;;;6168916;28;20356;-69
2022/06/26 15:52:31;;;;;;;2.20;1.20;;;41.20;26.70;;;;;;6168899;28;20057;-69
2022/06/26 15:55:32;;;;;;;5.63;1.40;;;41.30;26.70;;;;;;6202152;28;20030;-69
2022/06/26 15:58:33;;;;;;;6.75;1.42;;;41.30;26.60;;;;;;6202159;28;20034;-69
2022/06/26 16:01:34;;;;;;;2.63;1.10;;;41.10;26.70;;;;;;6201021;28;20367;-69
2022/06/26 16:04:35;;;;;;;3.03;1.42;;;41.00;26.80;;;;;;6184659;28;20464;-69